sensor_id;sensor_type;location;lat;lon;timestamp;pressure;altitude;pressure_sealevel;temperature;humidity
66945;BME280;53853;51.982;5.928;2023-05-12T00:01:16;101534.59;;;12.92;85.63
66945;BME280;53853;51.982;5.928;2023-05-12T00:03:48;101536.75;;;12.88;85.48
66945;BME280;53853;51.982;5.928;2023-05-12T00:06:19;101525.47;;;12.84;85.45
66945;BME280;53853;51.982;5.928;2023-05-12T00:08:50;101536.03;;;12.86;86.01
66945;BME280;53853;51.982;5.928;2023-05-12T00:11:20;101536.16;;;12.84;86.36
66945;BME280;53853;51.982;5.928;2023-05-12T00:13:50;101534.34;;;12.85;86.55
66945;BME280;53853;51.982;5.928;2023-05-12T00:16:20;101529.31;;;12.82;86.70
66945;BME280;53853;51.982;5.928;2023-05-12T00:18:52;101532.81;;;12.82;86.85
66945;BME280;53853;51.982;5.928;2023-05-12T00:21:22;101527.47;;;12.82;87.08
66945;BME280;53853;51.982;5.928;2023-05-12T00:23:52;101528.88;;;12.86;87.21
66945;BME280;53853;51.982;5.928;2023-05-12T00:26:22;101519.00;;;12.87;87.27
66945;BME280;53853;51.982;5.928;2023-05-12T00:28:52;101520.97;;;12.85;86.99
66945;BME280;53853;51.982;5.928;2023-05-12T00:31:22;101514.63;;;12.86;87.36
66945;BME280;53853;51.982;5.928;2023-05-12T00:33:55;101520.97;;;12.85;87.11
66945;BME280;53853;51.982;5.928;2023-05-12T00:36:26;101507.91;;;12.82;86.75
66945;BME280;53853;51.982;5.928;2023-05-12T00:38:56;101506.78;;;12.75;86.89
66945;BME280;53853;51.982;5.928;2023-05-12T00:41:26;101506.78;;;12.75;87.61
66945;BME280;53853;51.982;5.928;2023-05-12T00:43:55;101513.53;;;12.79;87.73
66945;BME280;53853;51.982;5.928;2023-05-12T00:46:26;101510.03;;;12.78;87.76
66945;BME280;53853;51.982;5.928;2023-05-12T00:48:58;101510.19;;;12.77;87.64
66945;BME280;53853;51.982;5.928;2023-05-12T00:51:28;101507.50;;;12.77;87.97
66945;BME280;53853;51.982;5.928;2023-05-12T00:53:58;101507.66;;;12.75;88.03
66945;BME280;53853;51.982;5.928;2023-05-12T00:56:28;101507.81;;;12.74;88.08
66945;BME280;53853;51.982;5.928;2023-05-12T00:59:01;101506.09;;;12.73;88.32
66945;BME280;53853;51.982;5.928;2023-05-12T01:01:32;101506.25;;;12.71;88.38
66945;BME280;53853;51.982;5.928;2023-05-12T01:04:05;101502.91;;;12.69;88.57
66945;BME280;53853;51.982;5.928;2023-05-12T01:06:39;101497.69;;;12.67;88.75
66945;BME280;53853;51.982;5.928;2023-05-12T01:09:11;101498.81;;;12.65;88.82
66945;BME280;53853;51.982;5.928;2023-05-12T01:11:41;101487.28;;;12.64;88.65
66945;BME280;53853;51.982;5.928;2023-05-12T01:14:11;101486.19;;;12.57;88.73
66945;BME280;53853;51.982;5.928;2023-05-12T01:16:47;101482.81;;;12.55;89.24
66945;BME280;53853;51.982;5.928;2023-05-12T01:19:30;101480.59;;;12.50;89.07
66945;BME280;53853;51.982;5.928;2023-05-12T01:22:02;101474.69;;;12.47;89.30
66945;BME280;53853;51.982;5.928;2023-05-12T01:24:35;101476.94;;;12.42;89.59
66945;BME280;53853;51.982;5.928;2023-05-12T01:27:10;101486.22;;;12.47;89.88
66945;BME280;53853;51.982;5.928;2023-05-12T01:29:41;101486.66;;;12.43;89.83
66945;BME280;53853;51.982;5.928;2023-05-12T01:32:12;101476.13;;;12.41;89.52
66945;BME280;53853;51.982;5.928;2023-05-12T01:34:43;101478.25;;;12.38;89.90
66945;BME280;53853;51.982;5.928;2023-05-12T01:37:13;101485.44;;;12.37;89.92
66945;BME280;53853;51.982;5.928;2023-05-12T01:39:44;101481.75;;;12.38;90.11
66945;BME280;53853;51.982;5.928;2023-05-12T01:42:21;101482.91;;;12.36;90.35
66945;BME280;53853;51.982;5.928;2023-05-12T01:44:51;101474.03;;;12.35;90.42
66945;BME280;53853;51.982;5.928;2023-05-12T01:47:21;101474.75;;;12.37;90.26
66945;BME280;53853;51.982;5.928;2023-05-12T01:50:17;101467.69;;;12.36;90.40
66945;BME280;53853;51.982;5.928;2023-05-12T01:52:47;101481.22;;;12.35;90.42
66945;BME280;53853;51.982;5.928;2023-05-12T01:55:19;101482.75;;;12.37;90.66
66945;BME280;53853;51.982;5.928;2023-05-12T01:58:00;101471.06;;;12.38;90.90
66945;BME280;53853;51.982;5.928;2023-05-12T02:00:31;101476.94;;;12.42;90.89
66945;BME280;53853;51.982;5.928;2023-05-12T02:03:02;101476.94;;;12.42;90.49
66945;BME280;53853;51.982;5.928;2023-05-12T02:05:33;101464.47;;;12.32;90.55
66945;BME280;53853;51.982;5.928;2023-05-12T02:08:03;101473.47;;;12.31;90.90
66945;BME280;53853;51.982;5.928;2023-05-12T02:10:33;101472.78;;;12.29;91.10
66945;BME280;53853;51.982;5.928;2023-05-12T02:13:06;101470.66;;;12.33;91.23
66945;BME280;53853;51.982;5.928;2023-05-12T02:15:36;101467.00;;;12.34;91.32
66945;BME280;53853;51.982;5.928;2023-05-12T02:18:06;101469.84;;;12.32;91.32
66945;BME280;53853;51.982;5.928;2023-05-12T02:20:36;101476.69;;;12.35;91.52
66945;BME280;53853;51.982;5.928;2023-05-12T02:23:05;101470.22;;;12.38;91.34
66945;BME280;53853;51.982;5.928;2023-05-12T02:25:35;101467.25;;;12.41;91.64
66945;BME280;53853;51.982;5.928;2023-05-12T02:28:08;101470.63;;;12.43;91.29
66945;BME280;53853;51.982;5.928;2023-05-12T02:30:43;101465.28;;;12.43;91.45
66945;BME280;53853;51.982;5.928;2023-05-12T02:33:14;101471.78;;;12.40;91.70
66945;BME280;53853;51.982;5.928;2023-05-12T02:35:44;101465.47;;;12.31;91.83
66945;BME280;53853;51.982;5.928;2023-05-12T02:38:14;101467.16;;;12.32;91.92
66945;BME280;53853;51.982;5.928;2023-05-12T02:40:45;101463.19;;;12.37;92.03
66945;BME280;53853;51.982;5.928;2023-05-12T02:43:18;101468.69;;;12.35;91.98
66945;BME280;53853;51.982;5.928;2023-05-12T02:45:48;101456.19;;;12.36;91.96
66945;BME280;53853;51.982;5.928;2023-05-12T02:48:18;101444.63;;;12.35;92.17
66945;BME280;53853;51.982;5.928;2023-05-12T02:50:48;101444.09;;;12.31;92.00
66945;BME280;53853;51.982;5.928;2023-05-12T02:53:18;101445.78;;;12.32;92.34
66945;BME280;53853;51.982;5.928;2023-05-12T02:55:47;101449.13;;;12.35;92.68
66945;BME280;53853;51.982;5.928;2023-05-12T02:58:20;101457.69;;;12.38;92.47
66945;BME280;53853;51.982;5.928;2023-05-12T03:00:50;101451.66;;;12.36;92.81
66945;BME280;53853;51.982;5.928;2023-05-12T03:03:20;101454.72;;;12.41;92.83
66945;BME280;53853;51.982;5.928;2023-05-12T03:05:50;101454.72;;;12.41;92.65
66945;BME280;53853;51.982;5.928;2023-05-12T03:08:20;101447.97;;;12.47;92.45
66945;BME280;53853;51.982;5.928;2023-05-12T03:10:50;101442.63;;;12.47;92.76
66945;BME280;53853;51.982;5.928;2023-05-12T03:13:23;101449.63;;;12.48;92.68
66945;BME280;53853;51.982;5.928;2023-05-12T03:15:53;101449.47;;;12.49;92.74
66945;BME280;53853;51.982;5.928;2023-05-12T03:18:27;101440.34;;;12.52;92.97
66945;BME280;53853;51.982;5.928;2023-05-12T03:20:57;101448.91;;;12.56;92.58
66945;BME280;53853;51.982;5.928;2023-05-12T03:23:27;101440.88;;;12.56;92.34
66945;BME280;53853;51.982;5.928;2023-05-12T03:25:57;101444.41;;;12.56;92.74
66945;BME280;53853;51.982;5.928;2023-05-12T03:28:30;101445.09;;;12.58;92.78
66945;BME280;53853;51.982;5.928;2023-05-12T03:30:59;101445.09;;;12.58;93.11
66945;BME280;53853;51.982;5.928;2023-05-12T03:33:30;101443.94;;;12.61;93.12
66945;BME280;53853;51.982;5.928;2023-05-12T03:36:00;101439.75;;;12.58;92.83
66945;BME280;53853;51.982;5.928;2023-05-12T03:38:30;101443.94;;;12.61;92.97
66945;BME280;53853;51.982;5.928;2023-05-12T03:41:03;101437.75;;;12.60;93.12
66945;BME280;53853;51.982;5.928;2023-05-12T03:43:37;101443.25;;;12.59;93.13
66945;BME280;53853;51.982;5.928;2023-05-12T03:46:07;101449.63;;;12.58;93.30
66945;BME280;53853;51.982;5.928;2023-05-12T03:48:37;101450.16;;;12.61;93.62
66945;BME280;53853;51.982;5.928;2023-05-12T03:51:07;101457.16;;;12.62;93.74
66945;BME280;53853;51.982;5.928;2023-05-12T03:53:37;101456.19;;;12.63;93.57
66945;BME280;53853;51.982;5.928;2023-05-12T03:56:11;101452.91;;;12.69;93.87
66945;BME280;53853;51.982;5.928;2023-05-12T03:58:44;101457.13;;;12.72;93.93
66945;BME280;53853;51.982;5.928;2023-05-12T04:01:16;101455.00;;;12.76;93.82
66945;BME280;53853;51.982;5.928;2023-05-12T04:03:46;101460.75;;;12.81;93.95
66945;BME280;53853;51.982;5.928;2023-05-12T04:06:15;101457.63;;;12.85;93.91
66945;BME280;53853;51.982;5.928;2023-05-12T04:08:45;101468.69;;;12.91;93.89
66945;BME280;53853;51.982;5.928;2023-05-12T04:11:15;101471.38;;;12.91;93.63
66945;BME280;53853;51.982;5.928;2023-05-12T04:13:47;101465.28;;;12.98;94.07
66945;BME280;53853;51.982;5.928;2023-05-12T04:16:17;101470.88;;;13.05;94.23
66945;BME280;53853;51.982;5.928;2023-05-12T04:18:48;101461.56;;;13.09;93.11
66945;BME280;53853;51.982;5.928;2023-05-12T04:21:18;101465.06;;;13.10;93.57
66945;BME280;53853;51.982;5.928;2023-05-12T04:23:50;101463.78;;;13.14;93.60
66945;BME280;53853;51.982;5.928;2023-05-12T04:26:22;101464.16;;;13.19;93.73
66945;BME280;53853;51.982;5.928;2023-05-12T04:28:55;101460.19;;;13.23;93.56
66945;BME280;53853;51.982;5.928;2023-05-12T04:31:25;101469.44;;;13.29;93.60
66945;BME280;53853;51.982;5.928;2023-05-12T04:33:55;101475.06;;;13.35;93.51
66945;BME280;53853;51.982;5.928;2023-05-12T04:36:25;101475.91;;;13.36;93.48
66945;BME280;53853;51.982;5.928;2023-05-12T04:38:55;101482.78;;;13.38;93.41
66945;BME280;53853;51.982;5.928;2023-05-12T04:41:25;101481.81;;;13.39;93.64
66945;BME280;53853;51.982;5.928;2023-05-12T04:43:58;101487.38;;;13.46;93.79
66945;BME280;53853;51.982;5.928;2023-05-12T04:46:28;101484.41;;;13.49;93.78
66945;BME280;53853;51.982;5.928;2023-05-12T04:48:58;101485.94;;;13.52;93.84
66945;BME280;53853;51.982;5.928;2023-05-12T04:51:27;101492.66;;;13.56;93.84
66945;BME280;53853;51.982;5.928;2023-05-12T04:53:57;101486.00;;;13.60;93.99
66945;BME280;53853;51.982;5.928;2023-05-12T04:56:28;101487.25;;;13.66;94.14
66945;BME280;53853;51.982;5.928;2023-05-12T04:59:00;101472.69;;;13.68;94.00
66945;BME280;53853;51.982;5.928;2023-05-12T05:01:30;101476.22;;;13.69;93.69
66945;BME280;53853;51.982;5.928;2023-05-12T05:04:05;101494.81;;;13.70;93.97
66945;BME280;53853;51.982;5.928;2023-05-12T05:06:35;101491.13;;;13.71;93.98
66945;BME280;53853;51.982;5.928;2023-05-12T05:09:06;101489.97;;;13.74;94.09
66945;BME280;53853;51.982;5.928;2023-05-12T05:11:36;101486.13;;;13.76;93.64
66945;BME280;53853;51.982;5.928;2023-05-12T05:14:09;101493.56;;;13.83;93.91
66945;BME280;53853;51.982;5.928;2023-05-12T05:16:39;101500.28;;;13.87;93.95
66945;BME280;53853;51.982;5.928;2023-05-12T05:19:09;101508.03;;;13.90;93.85
66945;BME280;53853;51.982;5.928;2023-05-12T05:21:39;101512.06;;;13.94;93.65
66945;BME280;53853;51.982;5.928;2023-05-12T05:24:09;101509.94;;;13.98;93.81
66945;BME280;53853;51.982;5.928;2023-05-12T05:26:39;101522.72;;;14.04;94.08
66945;BME280;53853;51.982;5.928;2023-05-12T05:29:11;101516.72;;;14.10;94.26
66945;BME280;53853;51.982;5.928;2023-05-12T05:31:41;101515.09;;;14.17;93.99
66945;BME280;53853;51.982;5.928;2023-05-12T05:34:11;101523.50;;;14.22;94.05
66945;BME280;53853;51.982;5.928;2023-05-12T05:36:41;101522.03;;;14.28;93.77
66945;BME280;53853;51.982;5.928;2023-05-12T05:39:11;101518.88;;;14.32;93.70
66945;BME280;53853;51.982;5.928;2023-05-12T05:41:41;101531.81;;;14.37;92.83
66945;BME280;53853;51.982;5.928;2023-05-12T05:44:13;101525.84;;;14.43;93.44
66945;BME280;53853;51.982;5.928;2023-05-12T05:46:43;101532.22;;;14.50;93.65
66945;BME280;53853;51.982;5.928;2023-05-12T05:49:13;101537.13;;;14.55;93.02
66945;BME280;53853;51.982;5.928;2023-05-12T05:51:43;101546.69;;;14.58;92.79
66945;BME280;53853;51.982;5.928;2023-05-12T05:54:13;101543.56;;;14.62;92.72
66945;BME280;53853;51.982;5.928;2023-05-12T05:56:43;101555.50;;;14.68;92.82
66945;BME280;53853;51.982;5.928;2023-05-12T05:59:15;101542.59;;;14.72;92.50
66945;BME280;53853;51.982;5.928;2023-05-12T06:01:45;101560.53;;;14.71;92.22
66945;BME280;53853;51.982;5.928;2023-05-12T06:04:15;101560.38;;;14.73;91.79
66945;BME280;53853;51.982;5.928;2023-05-12T06:06:46;101567.13;;;14.77;91.80
66945;BME280;53853;51.982;5.928;2023-05-12T06:09:16;101570.47;;;14.79;91.28
66945;BME280;53853;51.982;5.928;2023-05-12T06:11:46;101582.44;;;14.84;91.25
66945;BME280;53853;51.982;5.928;2023-05-12T06:14:19;101565.97;;;14.88;91.25
66945;BME280;53853;51.982;5.928;2023-05-12T06:16:48;101573.72;;;14.91;91.06
66945;BME280;53853;51.982;5.928;2023-05-12T06:19:18;101580.47;;;14.95;90.89
66945;BME280;53853;51.982;5.928;2023-05-12T06:21:48;101576.47;;;14.99;91.08
66945;BME280;53853;51.982;5.928;2023-05-12T06:24:18;101587.88;;;15.01;90.64
66945;BME280;53853;51.982;5.928;2023-05-12T06:26:48;101590.22;;;15.04;89.99
66945;BME280;53853;51.982;5.928;2023-05-12T06:29:21;101588.72;;;15.10;90.55
66945;BME280;53853;51.982;5.928;2023-05-12T06:31:51;101587.56;;;15.12;89.85
66945;BME280;53853;51.982;5.928;2023-05-12T06:34:21;101595.81;;;15.19;90.30
66945;BME280;53853;51.982;5.928;2023-05-12T06:36:51;101595.34;;;15.24;89.85
66945;BME280;53853;51.982;5.928;2023-05-12T06:39:21;101603.75;;;15.29;89.28
66945;BME280;53853;51.982;5.928;2023-05-12T06:41:51;101599.06;;;15.31;89.27
66945;BME280;53853;51.982;5.928;2023-05-12T06:44:24;101600.94;;;15.38;89.23
66945;BME280;53853;51.982;5.928;2023-05-12T06:46:54;101615.72;;;15.43;88.77
66945;BME280;53853;51.982;5.928;2023-05-12T06:49:24;101610.84;;;15.46;88.89
66945;BME280;53853;51.982;5.928;2023-05-12T06:51:54;101614.06;;;15.50;88.42
66945;BME280;53853;51.982;5.928;2023-05-12T06:54:24;101612.56;;;15.55;88.30
66945;BME280;53853;51.982;5.928;2023-05-12T06:56:53;101613.75;;;15.61;88.54
66945;BME280;53853;51.982;5.928;2023-05-12T06:59:26;101619.81;;;15.71;87.99
66945;BME280;53853;51.982;5.928;2023-05-12T07:01:56;101624.72;;;15.76;87.67
66945;BME280;53853;51.982;5.928;2023-05-12T07:04:26;101624.41;;;15.87;88.24
66945;BME280;53853;51.982;5.928;2023-05-12T07:06:56;101625.78;;;16.00;88.79
66945;BME280;53853;51.982;5.928;2023-05-12T07:09:26;101629.50;;;16.07;88.96
66945;BME280;53853;51.982;5.928;2023-05-12T07:11:55;101633.19;;;16.14;87.95
66945;BME280;53853;51.982;5.928;2023-05-12T07:14:29;101632.03;;;16.25;88.17
66945;BME280;53853;51.982;5.928;2023-05-12T07:16:58;101623.94;;;16.33;86.38
66945;BME280;53853;51.982;5.928;2023-05-12T07:19:28;101641.13;;;16.40;85.68
66945;BME280;53853;51.982;5.928;2023-05-12T07:21:58;101630.84;;;16.44;83.60
66945;BME280;53853;51.982;5.928;2023-05-12T07:24:28;101632.88;;;16.42;82.99
66945;BME280;53853;51.982;5.928;2023-05-12T07:26:58;101634.53;;;16.43;83.79
66945;BME280;53853;51.982;5.928;2023-05-12T07:29:31;101638.44;;;16.40;82.22
66945;BME280;53853;51.982;5.928;2023-05-12T07:32:01;101640.94;;;16.42;83.26
66945;BME280;53853;51.982;5.928;2023-05-12T07:34:32;101641.59;;;16.44;83.85
66945;BME280;53853;51.982;5.928;2023-05-12T07:37:02;101636.88;;;16.46;83.35
66945;BME280;53853;51.982;5.928;2023-05-12T07:39:32;101639.25;;;16.49;83.32
66945;BME280;53853;51.982;5.928;2023-05-12T07:42:02;101646.81;;;16.54;84.43
66945;BME280;53853;51.982;5.928;2023-05-12T07:44:34;101645.16;;;16.53;82.29
66945;BME280;53853;51.982;5.928;2023-05-12T07:47:04;101643.78;;;16.57;81.94
66945;BME280;53853;51.982;5.928;2023-05-12T07:49:34;101647.13;;;16.59;82.54
66945;BME280;53853;51.982;5.928;2023-05-12T07:52:04;101645.47;;;16.58;80.61
66945;BME280;53853;51.982;5.928;2023-05-12T07:54:34;101650.69;;;16.59;80.33
66945;BME280;53853;51.982;5.928;2023-05-12T07:57:04;101644.09;;;16.62;80.39
66945;BME280;53853;51.982;5.928;2023-05-12T07:59:37;101657.75;;;16.69;80.05
66945;BME280;53853;51.982;5.928;2023-05-12T08:02:07;101640.53;;;16.78;81.16
66945;BME280;53853;51.982;5.928;2023-05-12T08:04:36;101648.66;;;16.86;81.70
66945;BME280;53853;51.982;5.928;2023-05-12T08:07:06;101648.97;;;16.91;82.07
66945;BME280;53853;51.982;5.928;2023-05-12T08:09:36;101650.31;;;16.95;79.47
66945;BME280;53853;51.982;5.928;2023-05-12T08:12:06;101656.38;;;16.97;78.56
66945;BME280;53853;51.982;5.928;2023-05-12T08:14:39;101653.16;;;17.02;80.19
66945;BME280;53853;51.982;5.928;2023-05-12T08:17:08;101648.94;;;17.08;80.34
66945;BME280;53853;51.982;5.928;2023-05-12T08:19:38;101658.00;;;17.15;80.53
66945;BME280;53853;51.982;5.928;2023-05-12T08:22:08;101661.19;;;17.18;80.09
66945;BME280;53853;51.982;5.928;2023-05-12T08:24:38;101670.78;;;17.21;78.99
66945;BME280;53853;51.982;5.928;2023-05-12T08:27:08;101664.38;;;17.22;78.23
66945;BME280;53853;51.982;5.928;2023-05-12T08:29:40;101674.63;;;17.27;79.13
66945;BME280;53853;51.982;5.928;2023-05-12T08:32:10;101670.41;;;17.32;78.26
66945;BME280;53853;51.982;5.928;2023-05-12T08:34:40;101673.25;;;17.39;79.34
66945;BME280;53853;51.982;5.928;2023-05-12T08:37:11;101669.03;;;17.45;78.00
66945;BME280;53853;51.982;5.928;2023-05-12T08:39:41;101678.06;;;17.52;76.30
66945;BME280;53853;51.982;5.928;2023-05-12T08:42:17;101682.88;;;17.65;77.78
66945;BME280;53853;51.982;5.928;2023-05-12T08:44:59;101687.22;;;17.74;74.26
66945;BME280;53853;51.982;5.928;2023-05-12T08:47:30;101678.63;;;17.79;73.18
66945;BME280;53853;51.982;5.928;2023-05-12T08:50:03;101689.53;;;17.85;75.68
66945;BME280;53853;51.982;5.928;2023-05-12T08:52:34;101694.38;;;17.98;75.72
66945;BME280;53853;51.982;5.928;2023-05-12T08:55:05;101692.94;;;18.10;76.12
66945;BME280;53853;51.982;5.928;2023-05-12T08:57:36;101694.41;;;18.21;74.76
66945;BME280;53853;51.982;5.928;2023-05-12T09:00:15;101699.44;;;18.24;73.23
66945;BME280;53853;51.982;5.928;2023-05-12T09:02:46;101703.63;;;18.27;73.74
66945;BME280;53853;51.982;5.928;2023-05-12T09:05:16;101696.66;;;18.33;74.96
66945;BME280;53853;51.982;5.928;2023-05-12T09:07:49;101707.03;;;18.44;73.02
66945;BME280;53853;51.982;5.928;2023-05-12T09:10:21;101708.44;;;18.40;69.28
66945;BME280;53853;51.982;5.928;2023-05-12T09:12:56;101710.97;;;18.41;67.66
66945;BME280;53853;51.982;5.928;2023-05-12T09:15:34;101706.31;;;18.50;71.55
66945;BME280;53853;51.982;5.928;2023-05-12T09:18:05;101717.22;;;18.57;69.86
66945;BME280;53853;51.982;5.928;2023-05-12T09:20:34;101709.38;;;18.70;73.25
66945;BME280;53853;51.982;5.928;2023-05-12T09:23:14;101717.75;;;18.75;69.65
66945;BME280;53853;51.982;5.928;2023-05-12T09:25:45;101724.84;;;18.76;70.29
66945;BME280;53853;51.982;5.928;2023-05-12T09:28:15;101726.97;;;18.81;71.24
66945;BME280;53853;51.982;5.928;2023-05-12T09:30:47;101724.06;;;18.91;72.02
66945;BME280;53853;51.982;5.928;2023-05-12T09:33:17;101719.78;;;18.96;70.30
66945;BME280;53853;51.982;5.928;2023-05-12T09:35:48;101723.97;;;18.99;69.26
66945;BME280;53853;51.982;5.928;2023-05-12T09:38:18;101722.94;;;19.00;68.36
66945;BME280;53853;51.982;5.928;2023-05-12T09:40:48;101730.31;;;19.06;67.23
66945;BME280;53853;51.982;5.928;2023-05-12T09:43:18;101734.06;;;19.05;66.74
66945;BME280;53853;51.982;5.928;2023-05-12T09:45:50;101728.94;;;19.10;67.79
66945;BME280;53853;51.982;5.928;2023-05-12T09:48:21;101730.06;;;19.16;67.10
66945;BME280;53853;51.982;5.928;2023-05-12T09:50:51;101738.16;;;19.16;67.01
66945;BME280;53853;51.982;5.928;2023-05-12T09:53:21;101736.38;;;19.23;70.09
66945;BME280;53853;51.982;5.928;2023-05-12T09:55:52;101737.81;;;19.34;68.84
66945;BME280;53853;51.982;5.928;2023-05-12T09:58:22;101735.00;;;19.42;68.88
66945;BME280;53853;51.982;5.928;2023-05-12T10:00:56;101739.84;;;19.47;68.71
66945;BME280;53853;51.982;5.928;2023-05-12T10:03:29;101725.59;;;19.53;67.14
66945;BME280;53853;51.982;5.928;2023-05-12T10:06:01;101728.28;;;19.53;66.04
66945;BME280;53853;51.982;5.928;2023-05-12T10:08:40;101742.53;;;19.62;67.03
66945;BME280;53853;51.982;5.928;2023-05-12T10:11:12;101741.41;;;19.71;68.20
66945;BME280;53853;51.982;5.928;2023-05-12T10:13:43;101745.53;;;19.67;63.99
66945;BME280;53853;51.982;5.928;2023-05-12T10:16:15;101744.97;;;19.71;64.60
66945;BME280;53853;51.982;5.928;2023-05-12T10:18:45;101744.59;;;19.75;67.06
66945;BME280;53853;51.982;5.928;2023-05-12T10:21:16;101741.53;;;19.78;66.08
66945;BME280;53853;51.982;5.928;2023-05-12T10:23:46;101750.47;;;19.93;63.76
66945;BME280;53853;51.982;5.928;2023-05-12T10:26:17;101738.69;;;20.01;63.51
66945;BME280;53853;51.982;5.928;2023-05-12T10:28:47;101748.19;;;19.97;63.68
66945;BME280;53853;51.982;5.928;2023-05-12T10:31:20;101745.50;;;19.97;59.36
66945;BME280;53853;51.982;5.928;2023-05-12T10:33:54;101747.06;;;20.06;63.81
66945;BME280;53853;51.982;5.928;2023-05-12T10:36:24;101743.59;;;20.12;66.59
66945;BME280;53853;51.982;5.928;2023-05-12T10:38:55;101738.53;;;20.24;65.46
66945;BME280;53853;51.982;5.928;2023-05-12T10:41:32;101743.19;;;20.30;64.45
66945;BME280;53853;51.982;5.928;2023-05-12T10:44:02;101740.47;;;20.30;63.02
66945;BME280;53853;51.982;5.928;2023-05-12T10:46:35;101736.34;;;20.34;63.00
66945;BME280;53853;51.982;5.928;2023-05-12T10:49:07;101731.75;;;20.35;59.82
66945;BME280;53853;51.982;5.928;2023-05-12T10:51:47;101741.19;;;20.39;60.71
66945;BME280;53853;51.982;5.928;2023-05-12T10:54:23;101740.91;;;20.55;64.82
66945;BME280;53853;51.982;5.928;2023-05-12T10:56:57;101737.53;;;20.68;62.32
66945;BME280;53853;51.982;5.928;2023-05-12T10:59:28;101732.84;;;20.84;65.27
66945;BME280;53853;51.982;5.928;2023-05-12T11:02:02;101735.22;;;20.93;60.71
66945;BME280;53853;51.982;5.928;2023-05-12T11:04:40;101732.81;;;21.05;62.11
66945;BME280;53853;51.982;5.928;2023-05-12T11:07:12;101735.22;;;21.22;64.29
66945;BME280;53853;51.982;5.928;2023-05-12T11:09:43;101731.94;;;21.33;56.46
66945;BME280;53853;51.982;5.928;2023-05-12T11:12:14;101739.47;;;21.38;55.55
66945;BME280;53853;51.982;5.928;2023-05-12T11:14:45;101739.75;;;21.43;59.20
66945;BME280;53853;51.982;5.928;2023-05-12T11:17:18;101734.38;;;21.49;60.24
66945;BME280;53853;51.982;5.928;2023-05-12T11:19:48;101735.19;;;21.50;57.83
66945;BME280;53853;51.982;5.928;2023-05-12T11:22:19;101741.25;;;21.52;58.55
66945;BME280;53853;51.982;5.928;2023-05-12T11:24:50;101737.13;;;21.56;57.76
66945;BME280;53853;51.982;5.928;2023-05-12T11:27:21;101739.00;;;21.56;52.42
66945;BME280;53853;51.982;5.928;2023-05-12T11:29:58;101736.09;;;21.57;55.84
66945;BME280;53853;51.982;5.928;2023-05-12T11:32:32;101742.53;;;21.56;57.41
66945;BME280;53853;51.982;5.928;2023-05-12T11:35:10;101736.88;;;21.51;56.15
66945;BME280;53853;51.982;5.928;2023-05-12T11:37:41;101736.69;;;21.52;57.23
66945;BME280;53853;51.982;5.928;2023-05-12T11:40:13;101732.31;;;21.58;58.38
66945;BME280;53853;51.982;5.928;2023-05-12T11:42:44;101737.16;;;21.69;58.75
66945;BME280;53853;51.982;5.928;2023-05-12T11:45:20;101737.84;;;21.78;52.42
66945;BME280;53853;51.982;5.928;2023-05-12T11:48:03;101739.97;;;21.89;54.35
66945;BME280;53853;51.982;5.928;2023-05-12T11:50:36;101738.97;;;22.04;58.47
66945;BME280;53853;51.982;5.928;2023-05-12T11:53:10;101740.88;;;22.17;59.12
66945;BME280;53853;51.982;5.928;2023-05-12T11:55:47;101731.53;;;22.33;54.68
66945;BME280;53853;51.982;5.928;2023-05-12T11:58:19;101740.56;;;22.47;55.89
66945;BME280;53853;51.982;5.928;2023-05-12T12:00:52;101738.69;;;22.60;56.18
66945;BME280;53853;51.982;5.928;2023-05-12T12:03:25;101737.22;;;22.65;52.99
66945;BME280;53853;51.982;5.928;2023-05-12T12:05:59;101735.78;;;22.62;55.29
66945;BME280;53853;51.982;5.928;2023-05-12T12:08:29;101737.44;;;22.63;55.14
66945;BME280;53853;51.982;5.928;2023-05-12T12:10:59;101734.13;;;22.74;55.50
66945;BME280;53853;51.982;5.928;2023-05-12T12:13:30;101742.88;;;22.90;56.90
66945;BME280;53853;51.982;5.928;2023-05-12T12:15:59;101751.66;;;23.05;54.51
66945;BME280;53853;51.982;5.928;2023-05-12T12:18:32;101754.16;;;23.20;52.66
66945;BME280;53853;51.982;5.928;2023-05-12T12:21:02;101749.34;;;23.22;47.40
66945;BME280;53853;51.982;5.928;2023-05-12T12:23:32;101744.13;;;23.21;49.44
66945;BME280;53853;51.982;5.928;2023-05-12T12:26:02;101748.09;;;23.18;51.10
66945;BME280;53853;51.982;5.928;2023-05-12T12:28:32;101755.84;;;23.21;51.69
66945;BME280;53853;51.982;5.928;2023-05-12T12:31:02;101757.50;;;23.29;54.50
66945;BME280;53853;51.982;5.928;2023-05-12T12:33:34;101755.59;;;23.29;51.59
66945;BME280;53853;51.982;5.928;2023-05-12T12:36:04;101750.56;;;23.33;51.01
66945;BME280;53853;51.982;5.928;2023-05-12T12:38:34;101755.16;;;23.39;50.95
66945;BME280;53853;51.982;5.928;2023-05-12T12:41:06;101756.63;;;23.42;51.10
66945;BME280;53853;51.982;5.928;2023-05-12T12:43:36;101747.63;;;23.48;51.22
66945;BME280;53853;51.982;5.928;2023-05-12T12:46:06;101755.31;;;23.58;54.63
66945;BME280;53853;51.982;5.928;2023-05-12T12:48:38;101748.63;;;23.60;51.61
66945;BME280;53853;51.982;5.928;2023-05-12T12:51:08;101761.59;;;23.65;46.23
66945;BME280;53853;51.982;5.928;2023-05-12T12:53:38;101753.44;;;23.65;48.99
66945;BME280;53853;51.982;5.928;2023-05-12T12:56:09;101748.84;;;23.52;47.92
66945;BME280;53853;51.982;5.928;2023-05-12T12:58:39;101760.78;;;23.58;53.70
66945;BME280;53853;51.982;5.928;2023-05-12T13:01:08;101758.66;;;23.66;52.13
66945;BME280;53853;51.982;5.928;2023-05-12T13:03:41;101760.97;;;23.69;50.77
66945;BME280;53853;51.982;5.928;2023-05-12T13:06:11;101757.78;;;23.73;50.47
66945;BME280;53853;51.982;5.928;2023-05-12T13:08:40;101756.53;;;23.75;50.35
66945;BME280;53853;51.982;5.928;2023-05-12T13:11:11;101760.94;;;23.76;48.40